sensor_id;sensor_type;location;lat;lon;timestamp;pressure;altitude;pressure_sealevel;temperature;humidity
5872;BME280;2962;51.312;7.378;2023-03-18T00:01:37;96770.56;;;8.35;100.00
5872;BME280;2962;51.312;7.378;2023-03-18T00:04:02;96774.06;;;8.35;100.00
5872;BME280;2962;51.312;7.378;2023-03-18T00:06:28;96774.50;;;8.37;100.00
5872;BME280;2962;51.312;7.378;2023-03-18T00:08:54;96776.09;;;8.38;100.00
5872;BME280;2962;51.312;7.378;2023-03-18T00:11:20;96771.81;;;8.41;100.00
5872;BME280;2962;51.312;7.378;2023-03-18T00:13:46;96769.13;;;8.41;100.00
5872;BME280;2962;51.312;7.378;2023-03-18T00:16:13;96765.63;;;8.40;100.00
5872;BME280;2962;51.312;7.378;2023-03-18T00:18:39;96774.19;;;8.42;100.00
5872;BME280;2962;51.312;7.378;2023-03-18T00:21:05;96770.28;;;8.40;100.00
5872;BME280;2962;51.312;7.378;2023-03-18T00:23:32;96784.75;;;8.51;100.00
5872;BME280;2962;51.312;7.378;2023-03-18T00:25:58;96773.50;;;8.52;100.00
5872;BME280;2962;51.312;7.378;2023-03-18T00:28:25;96769.63;;;8.50;100.00
5872;BME280;2962;51.312;7.378;2023-03-18T00:30:51;96766.53;;;8.51;100.00
5872;BME280;2962;51.312;7.378;2023-03-18T00:33:17;96767.31;;;8.52;100.00
5872;BME280;2962;51.312;7.378;2023-03-18T00:35:43;96762.66;;;8.52;100.00
5872;BME280;2962;51.312;7.378;2023-03-18T00:38:10;96767.69;;;8.50;100.00
5872;BME280;2962;51.312;7.378;2023-03-18T00:40:47;96778.94;;;8.52;100.00
5872;BME280;2962;51.312;7.378;2023-03-18T00:43:29;96774.28;;;8.49;100.00
5872;BME280;2962;51.312;7.378;2023-03-18T00:45:58;96771.25;;;8.58;100.00
5872;BME280;2962;51.312;7.378;2023-03-18T00:48:24;96769.63;;;8.50;100.00
5872;BME280;2962;51.312;7.378;2023-03-18T00:50:50;96777.34;;;8.48;100.00
5872;BME280;2962;51.312;7.378;2023-03-18T00:53:16;96782.00;;;8.47;100.00
5872;BME280;2962;51.312;7.378;2023-03-18T00:55:42;96775.78;;;8.47;100.00
5872;BME280;2962;51.312;7.378;2023-03-18T00:58:09;96777.72;;;8.46;100.00
5872;BME280;2962;51.312;7.378;2023-03-18T01:00:36;96769.16;;;8.44;100.00
5872;BME280;2962;51.312;7.378;2023-03-18T01:03:03;96771.88;;;8.44;100.00
5872;BME280;2962;51.312;7.378;2023-03-18T01:05:30;96764.19;;;8.50;100.00
5872;BME280;2962;51.312;7.378;2023-03-18T01:07:55;96760.28;;;8.47;100.00
5872;BME280;2962;51.312;7.378;2023-03-18T01:10:21;96771.09;;;8.44;100.00
5872;BME280;2962;51.312;7.378;2023-03-18T01:12:47;96759.84;;;8.42;100.00
5872;BME280;2962;51.312;7.378;2023-03-18T01:15:15;96755.53;;;8.41;100.00
5872;BME280;2962;51.312;7.378;2023-03-18T01:17:41;96761.84;;;8.48;100.00
5872;BME280;2962;51.312;7.378;2023-03-18T01:20:07;96768.41;;;8.47;100.00
5872;BME280;2962;51.312;7.378;2023-03-18T01:22:35;96774.59;;;8.44;100.00
5872;BME280;2962;51.312;7.378;2023-03-18T01:25:00;96780.84;;;8.48;100.00
5872;BME280;2962;51.312;7.378;2023-03-18T01:27:26;96782.84;;;8.55;100.00
5872;BME280;2962;51.312;7.378;2023-03-18T01:29:52;96787.50;;;8.54;100.00
5872;BME280;2962;51.312;7.378;2023-03-18T01:32:17;96772.72;;;8.52;100.00
5872;BME280;2962;51.312;7.378;2023-03-18T01:34:42;96766.81;;;8.43;100.00
5872;BME280;2962;51.312;7.378;2023-03-18T01:37:08;96768.41;;;8.47;100.00
5872;BME280;2962;51.312;7.378;2023-03-18T01:39:33;96787.16;;;8.60;100.00
5872;BME280;2962;51.312;7.378;2023-03-18T01:41:59;96777.00;;;8.53;100.00
5872;BME280;2962;51.312;7.378;2023-03-18T01:44:25;96778.97;;;8.56;100.00
5872;BME280;2962;51.312;7.378;2023-03-18T01:46:52;96790.25;;;8.58;100.00
5872;BME280;2962;51.312;7.378;2023-03-18T01:49:19;96792.25;;;8.65;100.00
5872;BME280;2962;51.312;7.378;2023-03-18T01:54:42;96776.03;;;8.72;100.00
5872;BME280;2962;51.312;7.378;2023-03-18T01:57:08;96773.72;;;8.70;100.00
5872;BME280;2962;51.312;7.378;2023-03-18T01:59:37;96772.94;;;8.70;100.00
5872;BME280;2962;51.312;7.378;2023-03-18T02:02:06;96771.34;;;8.65;100.00
5872;BME280;2962;51.312;7.378;2023-03-18T02:04:40;96775.78;;;8.80;100.00
5872;BME280;2962;51.312;7.378;2023-03-18T02:07:12;96773.84;;;8.81;100.00
5872;BME280;2962;51.312;7.378;2023-03-18T02:09:37;96773.78;;;8.77;100.00
5872;BME280;2962;51.312;7.378;2023-03-18T02:12:03;96786.63;;;8.80;100.00
5872;BME280;2962;51.312;7.378;2023-03-18T02:14:29;96774.56;;;8.78;100.00
5872;BME280;2962;51.312;7.378;2023-03-18T02:17:02;96793.59;;;8.78;100.00
5872;BME280;2962;51.312;7.378;2023-03-18T02:22:43;96778.06;;;8.78;100.00
5872;BME280;2962;51.312;7.378;2023-03-18T02:25:39;96766.72;;;8.69;100.00
5872;BME280;2962;51.312;7.378;2023-03-18T02:28:09;96761.22;;;8.62;100.00
5872;BME280;2962;51.312;7.378;2023-03-18T02:30:43;96770.06;;;8.55;100.00
5872;BME280;2962;51.312;7.378;2023-03-18T02:33:10;96758.38;;;8.51;100.00
5872;BME280;2962;51.312;7.378;2023-03-18T02:35:36;96758.81;;;8.53;100.00
5872;BME280;2962;51.312;7.378;2023-03-18T02:38:02;96755.28;;;8.49;100.00
5872;BME280;2962;51.312;7.378;2023-03-18T02:40:32;96749.84;;;8.49;100.00
5872;BME280;2962;51.312;7.378;2023-03-18T02:43:18;96756.78;;;8.47;100.00
5872;BME280;2962;51.312;7.378;2023-03-18T02:46:05;96768.75;;;8.42;100.00
5872;BME280;2962;51.312;7.378;2023-03-18T02:48:38;96757.66;;;8.24;100.00
5872;BME280;2962;51.312;7.378;2023-03-18T02:51:08;96773.25;;;8.31;100.00
5872;BME280;2962;51.312;7.378;2023-03-18T02:53:34;96750.19;;;8.18;100.00
5872;BME280;2962;51.312;7.378;2023-03-18T02:56:00;96780.13;;;8.25;100.00
5872;BME280;2962;51.312;7.378;2023-03-18T02:58:26;96779.69;;;8.19;100.00
5872;BME280;2962;51.312;7.378;2023-03-18T03:00:52;96760.69;;;8.19;100.00
5872;BME280;2962;51.312;7.378;2023-03-18T03:03:20;96782.81;;;8.21;100.00
5872;BME280;2962;51.312;7.378;2023-03-18T03:05:45;96781.59;;;8.15;100.00
5872;BME280;2962;51.312;7.378;2023-03-18T03:08:11;96772.97;;;8.10;100.00
5872;BME280;2962;51.312;7.378;2023-03-18T03:10:37;96783.00;;;8.05;100.00
5872;BME280;2962;51.312;7.378;2023-03-18T03:13:03;96780.66;;;8.04;100.00
5872;BME280;2962;51.312;7.378;2023-03-18T03:15:28;96787.97;;;8.00;100.00
5872;BME280;2962;51.312;7.378;2023-03-18T03:17:54;96780.56;;;7.97;100.00
5872;BME280;2962;51.312;7.378;2023-03-18T03:20:20;96786.75;;;7.97;100.00
5872;BME280;2962;51.312;7.378;2023-03-18T03:22:46;96796.13;;;8.00;100.00
5872;BME280;2962;51.312;7.378;2023-03-18T03:25:11;96802.66;;;7.99;100.00
5872;BME280;2962;51.312;7.378;2023-03-18T03:27:37;96789.00;;;7.92;100.00
5872;BME280;2962;51.312;7.378;2023-03-18T03:30:08;96807.75;;;8.00;100.00
5872;BME280;2962;51.312;7.378;2023-03-18T03:32:34;96800.78;;;8.03;100.00
5872;BME280;2962;51.312;7.378;2023-03-18T03:34:59;96799.13;;;7.95;100.00
5872;BME280;2962;51.312;7.378;2023-03-18T03:37:25;96814.63;;;7.94;100.00
5872;BME280;2962;51.312;7.378;2023-03-18T03:39:51;96801.31;;;7.86;100.00
5872;BME280;2962;51.312;7.378;2023-03-18T03:42:16;96803.22;;;7.81;100.00
5872;BME280;2962;51.312;7.378;2023-03-18T03:44:42;96802.78;;;7.79;100.00
5872;BME280;2962;51.312;7.378;2023-03-18T03:47:07;96810.19;;;7.82;100.00
5872;BME280;2962;51.312;7.378;2023-03-18T03:49:32;96804.81;;;7.86;100.00
5872;BME280;2962;51.312;7.378;2023-03-18T03:51:58;96804.31;;;7.77;100.00
5872;BME280;2962;51.312;7.378;2023-03-18T03:54:23;96806.59;;;7.75;100.00
5872;BME280;2962;51.312;7.378;2023-03-18T03:56:50;96807.25;;;7.68;100.00
5872;BME280;2962;51.312;7.378;2023-03-18T03:59:15;96818.47;;;7.67;100.00
5872;BME280;2962;51.312;7.378;2023-03-18T04:01:41;96810.19;;;7.56;100.00
5872;BME280;2962;51.312;7.378;2023-03-18T04:04:06;96823.31;;;7.54;100.00
5872;BME280;2962;51.312;7.378;2023-03-18T04:06:31;96823.78;;;7.59;100.00
5872;BME280;2962;51.312;7.378;2023-03-18T04:08:56;96822.34;;;7.66;100.00
5872;BME280;2962;51.312;7.378;2023-03-18T04:11:22;96821.97;;;7.67;100.00
5872;BME280;2962;51.312;7.378;2023-03-18T04:13:47;96820.41;;;7.66;100.00
5872;BME280;2962;51.312;7.378;2023-03-18T04:16:13;96825.91;;;7.70;100.00
5872;BME280;2962;51.312;7.378;2023-03-18T04:18:41;96819.63;;;7.66;100.00
5872;BME280;2962;51.312;7.378;2023-03-18T04:21:06;96826.66;;;7.70;100.00
5872;BME280;2962;51.312;7.378;2023-03-18T04:23:32;96833.13;;;7.62;100.00
5872;BME280;2962;51.312;7.378;2023-03-18T04:25:57;96840.06;;;7.59;100.00
5872;BME280;2962;51.312;7.378;2023-03-18T04:28:23;96832.28;;;7.58;100.00
5872;BME280;2962;51.312;7.378;2023-03-18T04:30:48;96843.91;;;7.58;100.00
5872;BME280;2962;51.312;7.378;2023-03-18T04:33:14;96838.50;;;7.58;100.00
5872;BME280;2962;51.312;7.378;2023-03-18T04:35:40;96846.97;;;7.57;100.00
5872;BME280;2962;51.312;7.378;2023-03-18T04:38:08;96850.84;;;7.56;100.00
5872;BME280;2962;51.312;7.378;2023-03-18T04:40:33;96835.56;;;7.44;100.00
5872;BME280;2962;51.312;7.378;2023-03-18T04:42:58;96845.28;;;7.49;100.00
5872;BME280;2962;51.312;7.378;2023-03-18T04:45:24;96858.69;;;7.61;100.00
5872;BME280;2962;51.312;7.378;2023-03-18T04:47:49;96869.16;;;7.63;100.00
5872;BME280;2962;51.312;7.378;2023-03-18T04:50:15;96862.59;;;7.64;100.00
5872;BME280;2962;51.312;7.378;2023-03-18T04:52:42;96855.66;;;7.66;100.00
5872;BME280;2962;51.312;7.378;2023-03-18T04:55:09;96858.44;;;7.70;100.00
5872;BME280;2962;51.312;7.378;2023-03-18T04:57:35;96852.34;;;7.76;100.00
5872;BME280;2962;51.312;7.378;2023-03-18T05:00:06;96859.72;;;7.79;100.00
5872;BME280;2962;51.312;7.378;2023-03-18T05:02:35;96843.06;;;7.77;100.00
5872;BME280;2962;51.312;7.378;2023-03-18T05:05:01;96857.97;;;7.91;100.00
5872;BME280;2962;51.312;7.378;2023-03-18T05:07:26;96848.94;;;7.83;100.00
5872;BME280;2962;51.312;7.378;2023-03-18T05:09:52;96864.22;;;7.95;100.00
5872;BME280;2962;51.312;7.378;2023-03-18T05:12:17;96868.19;;;8.01;100.00
5872;BME280;2962;51.312;7.378;2023-03-18T05:14:42;96867.47;;;8.04;100.00
5872;BME280;2962;51.312;7.378;2023-03-18T05:17:09;96869.88;;;8.09;100.00
5872;BME280;2962;51.312;7.378;2023-03-18T05:19:41;96866.69;;;8.03;100.00
5872;BME280;2962;51.312;7.378;2023-03-18T05:22:06;96865.09;;;8.02;100.00
5872;BME280;2962;51.312;7.378;2023-03-18T05:24:32;96864.50;;;8.13;100.00
5872;BME280;2962;51.312;7.378;2023-03-18T05:26:57;96864.44;;;8.09;100.00
5872;BME280;2962;51.312;7.378;2023-03-18T05:29:23;96851.59;;;8.06;100.00
5872;BME280;2962;51.312;7.378;2023-03-18T05:31:48;96861.56;;;7.98;100.00
5872;BME280;2962;51.312;7.378;2023-03-18T05:34:13;96859.56;;;7.95;100.00
5872;BME280;2962;51.312;7.378;2023-03-18T05:36:39;96860.56;;;7.83;100.00
5872;BME280;2962;51.312;7.378;2023-03-18T05:39:04;96863.09;;;7.96;100.00
5872;BME280;2962;51.312;7.378;2023-03-18T05:41:29;96869.66;;;7.95;100.00
5872;BME280;2962;51.312;7.378;2023-03-18T05:43:55;96856.25;;;8.05;100.00
5872;BME280;2962;51.312;7.378;2023-03-18T05:46:20;96859.63;;;7.99;100.00
5872;BME280;2962;51.312;7.378;2023-03-18T05:48:45;96866.72;;;8.07;100.00
5872;BME280;2962;51.312;7.378;2023-03-18T05:51:12;96872.84;;;8.00;100.00
5872;BME280;2962;51.312;7.378;2023-03-18T05:53:38;96864.88;;;8.15;100.00
5872;BME280;2962;51.312;7.378;2023-03-18T05:56:03;96868.97;;;8.01;100.00
5872;BME280;2962;51.312;7.378;2023-03-18T05:58:28;96869.41;;;8.03;100.00
5872;BME280;2962;51.312;7.378;2023-03-18T06:00:56;96873.41;;;8.13;100.00
5872;BME280;2962;51.312;7.378;2023-03-18T06:03:23;96877.69;;;8.14;100.00
5872;BME280;2962;51.312;7.378;2023-03-18T06:05:49;96883.75;;;8.04;100.00
5872;BME280;2962;51.312;7.378;2023-03-18T06:08:14;96879.16;;;8.08;100.00
5872;BME280;2962;51.312;7.378;2023-03-18T06:10:39;96878.06;;;8.13;100.00
5872;BME280;2962;51.312;7.378;2023-03-18T06:13:05;96873.72;;;8.08;100.00
5872;BME280;2962;51.312;7.378;2023-03-18T06:15:31;96890.47;;;8.14;100.00
5872;BME280;2962;51.312;7.378;2023-03-18T06:17:57;96886.56;;;8.11;100.00
5872;BME280;2962;51.312;7.378;2023-03-18T06:20:22;96879.22;;;8.12;100.00
5872;BME280;2962;51.312;7.378;2023-03-18T06:22:48;96888.25;;;8.19;100.00
5872;BME280;2962;51.312;7.378;2023-03-18T06:25:15;96882.94;;;8.30;100.00
5872;BME280;2962;51.312;7.378;2023-03-18T06:27:40;96898.09;;;8.31;100.00
5872;BME280;2962;51.312;7.378;2023-03-18T06:30:06;96882.91;;;8.26;100.00
5872;BME280;2962;51.312;7.378;2023-03-18T06:32:32;96895.72;;;8.29;100.00
5872;BME280;2962;51.312;7.378;2023-03-18T06:34:58;96902.84;;;8.38;100.00
5872;BME280;2962;51.312;7.378;2023-03-18T06:37:23;96902.22;;;8.21;100.00
5872;BME280;2962;51.312;7.378;2023-03-18T06:39:49;96901.44;;;8.21;100.00
5872;BME280;2962;51.312;7.378;2023-03-18T06:42:15;96897.22;;;8.23;100.00
5872;BME280;2962;51.312;7.378;2023-03-18T06:44:41;96908.91;;;8.27;100.00
5872;BME280;2962;51.312;7.378;2023-03-18T06:47:08;96907.38;;;8.30;100.00
5872;BME280;2962;51.312;7.378;2023-03-18T06:49:34;96915.81;;;8.25;100.00
5872;BME280;2962;51.312;7.378;2023-03-18T06:51:59;96912.78;;;8.26;100.00
5872;BME280;2962;51.312;7.378;2023-03-18T06:54:24;96917.31;;;8.19;100.00
5872;BME280;2962;51.312;7.378;2023-03-18T06:56:50;96922.53;;;8.31;100.00
5872;BME280;2962;51.312;7.378;2023-03-18T06:59:15;96914.50;;;8.38;100.00
5872;BME280;2962;51.312;7.378;2023-03-18T07:01:41;96920.59;;;8.31;100.00
5872;BME280;2962;51.312;7.378;2023-03-18T07:04:07;96923.50;;;8.42;100.00
5872;BME280;2962;51.312;7.378;2023-03-18T07:06:33;96930.03;;;8.41;100.00
5872;BME280;2962;51.312;7.378;2023-03-18T07:08:58;96923.53;;;8.46;100.00
5872;BME280;2962;51.312;7.378;2023-03-18T07:11:25;96918.22;;;8.30;100.00
5872;BME280;2962;51.312;7.378;2023-03-18T07:13:51;96921.84;;;8.38;100.00
5872;BME280;2962;51.312;7.378;2023-03-18T07:16:17;96935.22;;;8.50;100.00
5872;BME280;2962;51.312;7.378;2023-03-18T07:18:43;96932.91;;;8.52;100.00
5872;BME280;2962;51.312;7.378;2023-03-18T07:21:08;96931.81;;;8.56;100.00
5872;BME280;2962;51.312;7.378;2023-03-18T07:23:34;96937.81;;;8.69;100.00
5872;BME280;2962;51.312;7.378;2023-03-18T07:25:59;96936.50;;;8.60;100.00
5872;BME280;2962;51.312;7.378;2023-03-18T07:28:25;96936.59;;;8.67;100.00
5872;BME280;2962;51.312;7.378;2023-03-18T07:30:50;96942.91;;;8.74;100.00
5872;BME280;2962;51.312;7.378;2023-03-18T07:33:16;96935.22;;;8.80;100.00
5872;BME280;2962;51.312;7.378;2023-03-18T07:35:41;96941.03;;;8.78;100.00
5872;BME280;2962;51.312;7.378;2023-03-18T07:38:07;96937.59;;;8.82;100.00
5872;BME280;2962;51.312;7.378;2023-03-18T07:40:33;96939.13;;;8.83;100.00
5872;BME280;2962;51.312;7.378;2023-03-18T07:42:59;96940.63;;;8.76;100.00
5872;BME280;2962;51.312;7.378;2023-03-18T07:45:25;96943.84;;;8.86;100.00
5872;BME280;2962;51.312;7.378;2023-03-18T07:47:50;96933.38;;;8.88;100.00
5872;BME280;2962;51.312;7.378;2023-03-18T07:50:15;96948.16;;;8.90;100.00
5872;BME280;2962;51.312;7.378;2023-03-18T07:52:41;96951.09;;;9.08;100.00
5872;BME280;2962;51.312;7.378;2023-03-18T07:55:07;96959.34;;;9.15;100.00
5872;BME280;2962;51.312;7.378;2023-03-18T07:57:33;96946.41;;;9.05;100.00
5872;BME280;2962;51.312;7.378;2023-03-18T07:59:59;96955.03;;;9.14;100.00
5872;BME280;2962;51.312;7.378;2023-03-18T08:02:24;96955.28;;;9.36;100.00
5872;BME280;2962;51.312;7.378;2023-03-18T08:04:51;96958.84;;;9.40;100.00
5872;BME280;2962;51.312;7.378;2023-03-18T08:07:17;96960.00;;;9.39;100.00
5872;BME280;2962;51.312;7.378;2023-03-18T08:09:42;96966.25;;;9.43;100.00
5872;BME280;2962;51.312;7.378;2023-03-18T08:12:08;96965.69;;;9.26;100.00
5872;BME280;2962;51.312;7.378;2023-03-18T08:14:33;96973.16;;;9.37;100.00
5872;BME280;2962;51.312;7.378;2023-03-18T08:16:58;96975.97;;;9.44;100.00
5872;BME280;2962;51.312;7.378;2023-03-18T08:19:24;96975.59;;;9.45;100.00
5872;BME280;2962;51.312;7.378;2023-03-18T08:21:49;96974.84;;;9.48;100.00
5872;BME280;2962;51.312;7.378;2023-03-18T08:24:14;96989.25;;;9.52;100.00
5872;BME280;2962;51.312;7.378;2023-03-18T08:26:40;96985.84;;;9.59;100.00
5872;BME280;2962;51.312;7.378;2023-03-18T08:29:05;96983.00;;;9.48;100.00
5872;BME280;2962;51.312;7.378;2023-03-18T08:31:30;96992.03;;;9.56;100.00
5872;BME280;2962;51.312;7.378;2023-03-18T08:33:56;96996.59;;;9.48;100.00
5872;BME280;2962;51.312;7.378;2023-03-18T08:36:22;96986.03;;;9.40;100.00
5872;BME280;2962;51.312;7.378;2023-03-18T08:38:47;97004.72;;;9.45;100.00
5872;BME280;2962;51.312;7.378;2023-03-18T08:41:13;96994.63;;;9.45;100.00
5872;BME280;2962;51.312;7.378;2023-03-18T08:43:39;96999.09;;;9.64;100.00
5872;BME280;2962;51.312;7.378;2023-03-18T08:46:05;97003.63;;;9.53;100.00
5872;BME280;2962;51.312;7.378;2023-03-18T08:48:30;96995.09;;;9.51;100.00
5872;BME280;2962;51.312;7.378;2023-03-18T08:50:56;96993.72;;;9.71;100.00
5872;BME280;2962;51.312;7.378;2023-03-18T08:53:21;96996.03;;;9.66;100.00
5872;BME280;2962;51.312;7.378;2023-03-18T08:55:46;97005.47;;;9.79;100.00
5872;BME280;2962;51.312;7.378;2023-03-18T08:58:12;97006.94;;;9.69;100.00
5872;BME280;2962;51.312;7.378;2023-03-18T09:00:39;97003.78;;;9.67;100.00
5872;BME280;2962;51.312;7.378;2023-03-18T09:03:05;97011.84;;;9.94;100.00
5872;BME280;2962;51.312;7.378;2023-03-18T09:05:32;97005.59;;;9.90;100.00
5872;BME280;2962;51.312;7.378;2023-03-18T09:07:57;96997.94;;;10.06;100.00
5872;BME280;2962;51.312;7.378;2023-03-18T09:10:24;97007.59;;;10.41;100.00
5872;BME280;2962;51.312;7.378;2023-03-18T09:12:49;97009.53;;;10.40;100.00
5872;BME280;2962;51.312;7.378;2023-03-18T09:15:15;97000.78;;;10.65;100.00
5872;BME280;2962;51.312;7.378;2023-03-18T09:17:41;97012.03;;;10.60;100.00
5872;BME280;2962;51.312;7.378;2023-03-18T09:20:09;97015.69;;;10.82;100.00
5872;BME280;2962;51.312;7.378;2023-03-18T09:22:36;97007.34;;;11.22;100.00
5872;BME280;2962;51.312;7.378;2023-03-18T09:25:02;97014.19;;;10.98;100.00
5872;BME280;2962;51.312;7.378;2023-03-18T09:27:27;97016.91;;;10.95;100.00
5872;BME280;2962;51.312;7.378;2023-03-18T09:29:53;97011.81;;;10.90;100.00
5872;BME280;2962;51.312;7.378;2023-03-18T09:32:18;97016.66;;;11.21;100.00
5872;BME280;2962;51.312;7.378;2023-03-18T09:34:43;97009.69;;;11.28;100.00
5872;BME280;2962;51.312;7.378;2023-03-18T09:37:10;97006.91;;;11.17;100.00
5872;BME280;2962;51.312;7.378;2023-03-18T09:39:37;97010.44;;;11.24;100.00
5872;BME280;2962;51.312;7.378;2023-03-18T09:42:27;97010.25;;;11.72;100.00
5872;BME280;2962;51.312;7.378;2023-03-18T09:45:08;97006.81;;;12.22;100.00
5872;BME280;2962;51.312;7.378;2023-03-18T09:47:53;96991.56;;;12.57;100.00
5872;BME280;2962;51.312;7.378;2023-03-18T09:50:42;96995.50;;;12.52;100.00
5872;BME280;2962;51.312;7.378;2023-03-18T09:53:30;96998.63;;;12.61;100.00
5872;BME280;2962;51.312;7.378;2023-03-18T09:56:01;96990.03;;;12.59;100.00
5872;BME280;2962;51.312;7.378;2023-03-18T09:58:44;96987.97;;;13.03;100.00
5872;BME280;2962;51.312;7.378;2023-03-18T10:01:11;96992.63;;;13.24;100.00
5872;BME280;2962;51.312;7.378;2023-03-18T10:06:14;96985.22;;;13.06;100.00
5872;BME280;2962;51.312;7.378;2023-03-18T10:11:46;97003.13;;;13.36;100.00
5872;BME280;2962;51.312;7.378;2023-03-18T10:14:28;96990.41;;;13.81;100.00
5872;BME280;2962;51.312;7.378;2023-03-18T10:17:11;97000.19;;;14.38;100.00
5872;BME280;2962;51.312;7.378;2023-03-18T10:19:44;96990.50;;;14.71;100.00
5872;BME280;2962;51.312;7.378;2023-03-18T10:25:02;96990.06;;;14.28;100.00
5872;BME280;2962;51.312;7.378;2023-03-18T10:32:44;96987.88;;;14.98;100.00
5872;BME280;2962;51.312;7.378;2023-03-18T10:38:12;96983.84;;;14.72;100.00
5872;BME280;2962;51.312;7.378;2023-03-18T10:40:41;96980.72;;;14.70;100.00
5872;BME280;2962;51.312;7.378;2023-03-18T10:43:18;96994.41;;;15.11;100.00
5872;BME280;2962;51.312;7.378;2023-03-18T10:45:47;96991.06;;;15.31;100.00
5872;BME280;2962;51.312;7.378;2023-03-18T10:48:24;96988.94;;;15.11;100.00
5872;BME280;2962;51.312;7.378;2023-03-18T10:51:12;96988.94;;;15.11;100.00
5872;BME280;2962;51.312;7.378;2023-03-18T10:53:48;96989.06;;;14.97;100.00
5872;BME280;2962;51.312;7.378;2023-03-18T10:56:17;96981.94;;;15.07;100.00
5872;BME280;2962;51.312;7.378;2023-03-18T10:58:43;96983.38;;;15.49;100.00
5872;BME280;2962;51.312;7.378;2023-03-18T11:01:11;96984.75;;;15.65;100.00
5872;BME280;2962;51.312;7.378;2023-03-18T11:03:46;96998.53;;;16.19;100.00
5872;BME280;2962;51.312;7.378;2023-03-18T11:06:17;96977.78;;;15.87;100.00
5872;BME280;2962;51.312;7.378;2023-03-18T11:08:46;96990.72;;;15.56;100.00
5872;BME280;2962;51.312;7.378;2023-03-18T11:11:26;96997.97;;;15.43;100.00
5872;BME280;2962;51.312;7.378;2023-03-18T11:13:54;96994.09;;;15.36;100.00
5872;BME280;2962;51.312;7.378;2023-03-18T11:16:39;96974.78;;;15.47;100.00
5872;BME280;2962;51.312;7.378;2023-03-18T11:19:25;96980.66;;;15.80;100.00
5872;BME280;2962;51.312;7.378;2023-03-18T11:24:36;96982.81;;;16.19;100.00
5872;BME280;2962;51.312;7.378;2023-03-18T11:29:54;96988.81;;;16.84;100.00
5872;BME280;2962;51.312;7.378;2023-03-18T11:32:29;96974.72;;;17.02;100.00
5872;BME280;2962;51.312;7.378;2023-03-18T11:35:04;96985.53;;;17.33;100.00
5872;BME280;2962;51.312;7.378;2023-03-18T11:37:35;96988.56;;;17.39;100.00
5872;BME280;2962;51.312;7.378;2023-03-18T11:42:37;96988.66;;;16.45;100.00
5872;BME280;2962;51.312;7.378;2023-03-18T11:45:19;96976.44;;;16.26;100.00
5872;BME280;2962;51.312;7.378;2023-03-18T11:47:47;96978.91;;;17.11;100.00
5872;BME280;2962;51.312;7.378;2023-03-18T11:50:24;96978.03;;;17.53;100.00
5872;BME280;2962;51.312;7.378;2023-03-18T11:53:00;96979.94;;;17.76;100.00
5872;BME280;2962;51.312;7.378;2023-03-18T11:55:38;96975.34;;;18.22;100.00
5872;BME280;2962;51.312;7.378;2023-03-18T12:09:30;96965.41;;;17.92;100.00
5872;BME280;2962;51.312;7.378;2023-03-18T12:17:18;96989.22;;;18.19;100.00
5872;BME280;2962;51.312;7.378;2023-03-18T12:25:35;97000.13;;;17.90;100.00
5872;BME280;2962;51.312;7.378;2023-03-18T12:28:15;96989.63;;;18.01;100.00
5872;BME280;2962;51.312;7.378;2023-03-18T12:36:34;96995.22;;;18.14;100.00
5872;BME280;2962;51.312;7.378;2023-03-18T12:39:19;96998.09;;;18.26;100.00
5872;BME280;2962;51.312;7.378;2023-03-18T12:42:09;96980.75;;;18.10;100.00
5872;BME280;2962;51.312;7.378;2023-03-18T12:44:40;96977.66;;;17.71;100.00
5872;BME280;2962;51.312;7.378;2023-03-18T12:47:17;96984.31;;;16.71;100.00
5872;BME280;2962;51.312;7.378;2023-03-18T12:49:52;96980.75;;;16.50;100.00
5872;BME280;2962;51.312;7.378;2023-03-18T12:52:39;96973.06;;;16.15;100.00
5872;BME280;2962;51.312;7.378;2023-03-18T12:55:18;96979.63;;;16.21;100.00
5872;BME280;2962;51.312;7.378;2023-03-18T12:57:54;96976.53;;;16.19;100.00
5872;BME280;2962;51.312;7.378;2023-03-18T13:00:26;96969.91;;;15.89;100.00
5872;BME280;2962;51.312;7.378;2023-03-18T13:05:26;96964.94;;;16.07;100.00
5872;BME280;2962;51.312;7.378;2023-03-18T13:11:08;96943.53;;;16.89;100.00
5872;BME280;2962;51.312;7.378;2023-03-18T13:13:35;96955.88;;;17.61;100.00
5872;BME280;2962;51.312;7.378;2023-03-18T13:16:03;96958.38;;;17.91;100.00
5872;BME280;2962;51.312;7.378;2023-03-18T13:18:51;96970.50;;;18.10;100.00
5872;BME280;2962;51.312;7.378;2023-03-18T13:21:22;96960.25;;;17.94;100.00
5872;BME280;2962;51.312;7.378;2023-03-18T13:27:11;96956.56;;;20.17;100.00
5872;BME280;2962;51.312;7.378;2023-03-18T13:30:06;96952.38;;;19.62;100.00
5872;BME280;2962;51.312;7.378;2023-03-18T13:38:05;96945.63;;;20.14;100.00
5872;BME280;2962;51.312;7.378;2023-03-18T13:43:22;96940.75;;;19.12;100.00
5872;BME280;2962;51.312;7.378;2023-03-18T13:45:51;96927.69;;;19.13;100.00
5872;BME280;2962;51.312;7.378;2023-03-18T13:54:14;96938.44;;;20.77;100.00
5872;BME280;2962;51.312;7.378;2023-03-18T13:56:47;96935.81;;;21.17;96.27
5872;BME280;2962;51.312;7.378;2023-03-18T14:04:49;96944.63;;;19.15;100.00
5872;BME280;2962;51.312;7.378;2023-03-18T14:07:15;96927.88;;;18.31;100.00
5872;BME280;2962;51.312;7.378;2023-03-18T14:09:53;96930.78;;;17.19;100.00
5872;BME280;2962;51.312;7.378;2023-03-18T14:12:22;96920.94;;;16.54;100.00
5872;BME280;2962;51.312;7.378;2023-03-18T14:20:20;96922.13;;;16.06;100.00
5872;BME280;2962;51.312;7.378;2023-03-18T14:22:49;96914.41;;;15.74;100.00
5872;BME280;2962;51.312;7.378;2023-03-18T14:25:34;96915.22;;;15.71;100.00
5872;BME280;2962;51.312;7.378;2023-03-18T14:33:51;96919.31;;;15.86;100.00
5872;BME280;2962;51.312;7.378;2023-03-18T14:36:21;96919.38;;;15.52;100.00
5872;BME280;2962;51.312;7.378;2023-03-18T14:38:53;96919.06;;;15.20;100.00
5872;BME280;2962;51.312;7.378;2023-03-18T14:41:26;96928.25;;;14.68;100.00
5872;BME280;2962;51.312;7.378;2023-03-18T14:44:17;96923.31;;;14.49;100.00
5872;BME280;2962;51.312;7.378;2023-03-18T14:46:48;96909.31;;;14.39;100.00
5872;BME280;2962;51.312;7.378;2023-03-18T14:49:40;96911.56;;;13.55;100.00
5872;BME280;2962;51.312;7.378;2023-03-18T14:53:02;96940.69;;;13.09;100.00
5872;BME280;2962;51.312;7.378;2023-03-18T14:55:22;96939.56;;;13.00;100.00
5872;BME280;2962;51.312;7.378;2023-03-18T14:57:49;96916.97;;;12.78;100.00
5872;BME280;2962;51.312;7.378;2023-03-18T15:00:17;96928.31;;;12.73;100.00
5872;BME280;2962;51.312;7.378;2023-03-18T15:02:43;96924.41;;;12.74;100.00
5872;BME280;2962;51.312;7.378;2023-03-18T15:05:17;96931.06;;;12.65;100.00